sensor_id;sensor_type;location;lat;lon;timestamp;P1;durP1;ratioP1;P2;durP2;ratioP2
21780;SDS011;52576;53.614;9.894;2023-02-28T00:00:27;6.38;;;2.25;;
21780;SDS011;52576;53.614;9.894;2023-02-28T00:02:31;7.78;;;2.10;;
21780;SDS011;52576;53.614;9.894;2023-02-28T00:04:34;6.95;;;2.15;;
21780;SDS011;52576;53.614;9.894;2023-02-28T00:06:38;7.75;;;1.90;;
21780;SDS011;52576;53.614;9.894;2023-02-28T00:08:41;6.78;;;1.90;;
21780;SDS011;52576;53.614;9.894;2023-02-28T00:10:45;6.20;;;2.20;;
21780;SDS011;52576;53.614;9.894;2023-02-28T00:12:48;7.32;;;1.92;;
21780;SDS011;52576;53.614;9.894;2023-02-28T00:14:53;7.85;;;2.20;;
21780;SDS011;52576;53.614;9.894;2023-02-28T00:16:58;6.07;;;1.90;;
21780;SDS011;52576;53.614;9.894;2023-02-28T00:19:02;8.30;;;1.60;;
21780;SDS011;52576;53.614;9.894;2023-02-28T00:21:05;5.68;;;1.88;;
21780;SDS011;52576;53.614;9.894;2023-02-28T00:23:10;5.90;;;1.88;;
21780;SDS011;52576;53.614;9.894;2023-02-28T00:25:14;8.18;;;2.10;;
21780;SDS011;52576;53.614;9.894;2023-02-28T00:27:19;8.80;;;2.10;;
21780;SDS011;52576;53.614;9.894;2023-02-28T00:29:22;5.05;;;1.60;;
21780;SDS011;52576;53.614;9.894;2023-02-28T00:31:27;5.68;;;1.55;;
21780;SDS011;52576;53.614;9.894;2023-02-28T00:33:32;7.93;;;1.83;;
21780;SDS011;52576;53.614;9.894;2023-02-28T00:35:36;4.40;;;1.40;;
21780;SDS011;52576;53.614;9.894;2023-02-28T00:37:39;3.80;;;1.60;;
21780;SDS011;52576;53.614;9.894;2023-02-28T00:39:43;4.70;;;1.60;;
21780;SDS011;52576;53.614;9.894;2023-02-28T00:41:46;3.65;;;1.70;;
21780;SDS011;52576;53.614;9.894;2023-02-28T00:43:50;13.10;;;1.80;;
21780;SDS011;52576;53.614;9.894;2023-02-28T00:45:53;5.97;;;1.98;;
21780;SDS011;52576;53.614;9.894;2023-02-28T00:47:58;5.93;;;1.60;;
21780;SDS011;52576;53.614;9.894;2023-02-28T00:50:03;6.38;;;1.73;;
21780;SDS011;52576;53.614;9.894;2023-02-28T00:52:08;7.20;;;2.00;;
21780;SDS011;52576;53.614;9.894;2023-02-28T00:54:12;5.28;;;1.70;;
21780;SDS011;52576;53.614;9.894;2023-02-28T00:56:16;4.50;;;1.70;;
21780;SDS011;52576;53.614;9.894;2023-02-28T00:58:21;7.90;;;1.90;;
21780;SDS011;52576;53.614;9.894;2023-02-28T01:00:25;5.95;;;1.92;;
21780;SDS011;52576;53.614;9.894;2023-02-28T01:02:28;8.68;;;1.90;;
21780;SDS011;52576;53.614;9.894;2023-02-28T01:04:32;4.30;;;1.73;;
21780;SDS011;52576;53.614;9.894;2023-02-28T01:06:37;5.97;;;1.98;;
21780;SDS011;52576;53.614;9.894;2023-02-28T01:08:44;5.25;;;1.98;;
21780;SDS011;52576;53.614;9.894;2023-02-28T01:10:47;7.03;;;1.77;;
21780;SDS011;52576;53.614;9.894;2023-02-28T01:12:51;5.65;;;1.90;;
21780;SDS011;52576;53.614;9.894;2023-02-28T01:14:54;7.07;;;1.92;;
21780;SDS011;52576;53.614;9.894;2023-02-28T01:16:58;5.13;;;1.90;;
21780;SDS011;52576;53.614;9.894;2023-02-28T01:19:01;7.45;;;1.70;;
21780;SDS011;52576;53.614;9.894;2023-02-28T01:21:05;7.97;;;2.15;;
21780;SDS011;52576;53.614;9.894;2023-02-28T01:23:13;7.82;;;1.70;;
21780;SDS011;52576;53.614;9.894;2023-02-28T01:25:17;4.97;;;1.80;;
21780;SDS011;52576;53.614;9.894;2023-02-28T01:27:20;6.03;;;1.90;;
21780;SDS011;52576;53.614;9.894;2023-02-28T01:29:24;4.93;;;1.63;;
21780;SDS011;52576;53.614;9.894;2023-02-28T01:31:27;4.00;;;1.58;;
21780;SDS011;52576;53.614;9.894;2023-02-28T01:33:31;6.70;;;2.25;;
21780;SDS011;52576;53.614;9.894;2023-02-28T01:35:35;7.00;;;1.90;;
21780;SDS011;52576;53.614;9.894;2023-02-28T01:37:39;6.50;;;1.90;;
21780;SDS011;52576;53.614;9.894;2023-02-28T01:39:44;6.20;;;1.70;;
21780;SDS011;52576;53.614;9.894;2023-02-28T01:41:47;5.72;;;2.00;;
21780;SDS011;52576;53.614;9.894;2023-02-28T01:43:56;5.05;;;1.77;;
21780;SDS011;52576;53.614;9.894;2023-02-28T01:46:04;7.43;;;2.08;;
21780;SDS011;52576;53.614;9.894;2023-02-28T01:48:08;5.60;;;1.92;;
21780;SDS011;52576;53.614;9.894;2023-02-28T01:50:15;9.35;;;2.17;;
21780;SDS011;52576;53.614;9.894;2023-02-28T01:52:22;6.10;;;2.00;;
21780;SDS011;52576;53.614;9.894;2023-02-28T01:54:28;6.38;;;2.22;;
21780;SDS011;52576;53.614;9.894;2023-02-28T01:56:35;5.15;;;2.00;;
21780;SDS011;52576;53.614;9.894;2023-02-28T01:58:39;8.70;;;2.10;;
21780;SDS011;52576;53.614;9.894;2023-02-28T02:00:43;5.97;;;2.00;;
21780;SDS011;52576;53.614;9.894;2023-02-28T02:02:48;6.65;;;1.73;;
21780;SDS011;52576;53.614;9.894;2023-02-28T02:04:54;6.75;;;2.15;;
21780;SDS011;52576;53.614;9.894;2023-02-28T02:07:03;7.68;;;1.80;;
21780;SDS011;52576;53.614;9.894;2023-02-28T02:09:07;7.45;;;2.35;;
21780;SDS011;52576;53.614;9.894;2023-02-28T02:11:11;9.52;;;2.30;;
21780;SDS011;52576;53.614;9.894;2023-02-28T02:13:24;9.90;;;1.98;;
21780;SDS011;52576;53.614;9.894;2023-02-28T02:15:49;6.60;;;2.10;;
21780;SDS011;52576;53.614;9.894;2023-02-28T02:18:04;7.22;;;2.00;;
21780;SDS011;52576;53.614;9.894;2023-02-28T02:25:38;5.40;;;2.00;;
21780;SDS011;52576;53.614;9.894;2023-02-28T02:27:53;5.97;;;2.08;;
21780;SDS011;52576;53.614;9.894;2023-02-28T02:30:20;6.43;;;2.28;;
21780;SDS011;52576;53.614;9.894;2023-02-28T02:32:59;8.20;;;2.13;;
21780;SDS011;52576;53.614;9.894;2023-02-28T02:35:14;6.13;;;2.10;;
21780;SDS011;52576;53.614;9.894;2023-02-28T02:37:25;6.32;;;2.25;;
21780;SDS011;52576;53.614;9.894;2023-02-28T02:39:35;11.05;;;2.42;;
21780;SDS011;52576;53.614;9.894;2023-02-28T02:41:49;8.30;;;2.05;;
21780;SDS011;52576;53.614;9.894;2023-02-28T02:43:56;9.18;;;2.22;;
21780;SDS011;52576;53.614;9.894;2023-02-28T02:46:06;9.32;;;2.13;;
21780;SDS011;52576;53.614;9.894;2023-02-28T02:48:19;9.50;;;2.65;;
21780;SDS011;52576;53.614;9.894;2023-02-28T02:50:29;4.88;;;1.98;;
21780;SDS011;52576;53.614;9.894;2023-02-28T02:52:37;8.48;;;1.95;;
21780;SDS011;52576;53.614;9.894;2023-02-28T02:54:44;6.50;;;2.50;;
21780;SDS011;52576;53.614;9.894;2023-02-28T02:56:51;9.18;;;2.10;;
21780;SDS011;52576;53.614;9.894;2023-02-28T02:58:57;8.77;;;2.30;;
21780;SDS011;52576;53.614;9.894;2023-02-28T03:01:05;7.85;;;2.60;;
21780;SDS011;52576;53.614;9.894;2023-02-28T03:03:09;5.63;;;2.42;;
21780;SDS011;52576;53.614;9.894;2023-02-28T03:05:15;7.32;;;2.50;;
21780;SDS011;52576;53.614;9.894;2023-02-28T03:07:24;8.60;;;2.50;;
21780;SDS011;52576;53.614;9.894;2023-02-28T03:09:28;7.57;;;2.50;;
21780;SDS011;52576;53.614;9.894;2023-02-28T03:11:37;9.05;;;2.25;;
21780;SDS011;52576;53.614;9.894;2023-02-28T03:13:54;9.32;;;2.35;;
21780;SDS011;52576;53.614;9.894;2023-02-28T03:16:10;8.68;;;2.72;;
21780;SDS011;52576;53.614;9.894;2023-02-28T03:18:32;7.50;;;2.20;;
21780;SDS011;52576;53.614;9.894;2023-02-28T03:20:45;6.95;;;2.60;;
21780;SDS011;52576;53.614;9.894;2023-02-28T03:22:59;6.43;;;2.05;;
21780;SDS011;52576;53.614;9.894;2023-02-28T03:25:12;6.80;;;2.20;;
21780;SDS011;52576;53.614;9.894;2023-02-28T03:27:23;7.18;;;2.65;;
21780;SDS011;52576;53.614;9.894;2023-02-28T03:29:32;7.22;;;2.90;;
21780;SDS011;52576;53.614;9.894;2023-02-28T03:31:38;9.38;;;3.72;;
21780;SDS011;52576;53.614;9.894;2023-02-28T03:33:49;10.82;;;3.72;;
21780;SDS011;52576;53.614;9.894;2023-02-28T03:35:58;14.43;;;4.75;;
21780;SDS011;52576;53.614;9.894;2023-02-28T03:38:08;12.57;;;4.45;;
21780;SDS011;52576;53.614;9.894;2023-02-28T03:40:17;14.63;;;4.50;;
21780;SDS011;52576;53.614;9.894;2023-02-28T03:42:25;11.32;;;4.20;;
21780;SDS011;52576;53.614;9.894;2023-02-28T03:44:32;10.50;;;4.35;;
21780;SDS011;52576;53.614;9.894;2023-02-28T03:46:38;14.30;;;4.38;;
21780;SDS011;52576;53.614;9.894;2023-02-28T03:48:49;12.05;;;4.18;;
21780;SDS011;52576;53.614;9.894;2023-02-28T03:50:57;11.52;;;3.90;;
21780;SDS011;52576;53.614;9.894;2023-02-28T03:53:04;14.00;;;4.53;;
21780;SDS011;52576;53.614;9.894;2023-02-28T03:55:14;13.27;;;4.43;;
21780;SDS011;52576;53.614;9.894;2023-02-28T03:57:21;12.23;;;4.53;;
21780;SDS011;52576;53.614;9.894;2023-02-28T03:59:31;12.13;;;3.93;;
21780;SDS011;52576;53.614;9.894;2023-02-28T04:01:40;10.52;;;3.83;;
21780;SDS011;52576;53.614;9.894;2023-02-28T04:03:45;12.98;;;4.15;;
21780;SDS011;52576;53.614;9.894;2023-02-28T04:05:50;11.77;;;4.10;;
21780;SDS011;52576;53.614;9.894;2023-02-28T04:08:00;12.60;;;3.80;;
21780;SDS011;52576;53.614;9.894;2023-02-28T04:10:07;9.80;;;4.00;;
21780;SDS011;52576;53.614;9.894;2023-02-28T04:12:13;10.45;;;4.80;;
21780;SDS011;52576;53.614;9.894;2023-02-28T04:14:16;8.60;;;3.80;;
21780;SDS011;52576;53.614;9.894;2023-02-28T04:16:21;15.05;;;4.30;;
21780;SDS011;52576;53.614;9.894;2023-02-28T04:18:36;14.10;;;4.43;;
21780;SDS011;52576;53.614;9.894;2023-02-28T04:20:39;9.63;;;4.13;;
21780;SDS011;52576;53.614;9.894;2023-02-28T04:22:42;15.00;;;4.55;;
21780;SDS011;52576;53.614;9.894;2023-02-28T04:24:46;15.05;;;4.63;;
21780;SDS011;52576;53.614;9.894;2023-02-28T04:26:50;16.20;;;4.65;;
21780;SDS011;52576;53.614;9.894;2023-02-28T04:28:56;12.82;;;5.05;;
21780;SDS011;52576;53.614;9.894;2023-02-28T04:31:00;18.83;;;5.30;;
21780;SDS011;52576;53.614;9.894;2023-02-28T04:33:04;15.55;;;5.38;;
21780;SDS011;52576;53.614;9.894;2023-02-28T04:35:08;12.75;;;4.95;;
21780;SDS011;52576;53.614;9.894;2023-02-28T04:37:13;12.77;;;5.70;;
21780;SDS011;52576;53.614;9.894;2023-02-28T04:39:16;13.45;;;5.82;;
21780;SDS011;52576;53.614;9.894;2023-02-28T04:41:20;16.15;;;6.07;;
21780;SDS011;52576;53.614;9.894;2023-02-28T04:43:25;24.33;;;7.53;;
21780;SDS011;52576;53.614;9.894;2023-02-28T04:45:30;23.05;;;8.15;;
21780;SDS011;52576;53.614;9.894;2023-02-28T04:47:35;20.25;;;6.53;;
21780;SDS011;52576;53.614;9.894;2023-02-28T04:49:39;18.38;;;6.22;;
21780;SDS011;52576;53.614;9.894;2023-02-28T04:51:43;16.92;;;6.05;;
21780;SDS011;52576;53.614;9.894;2023-02-28T04:53:47;19.75;;;7.00;;
21780;SDS011;52576;53.614;9.894;2023-02-28T04:55:51;15.57;;;6.57;;
21780;SDS011;52576;53.614;9.894;2023-02-28T04:57:54;18.00;;;6.45;;
21780;SDS011;52576;53.614;9.894;2023-02-28T04:59:58;16.02;;;6.32;;
21780;SDS011;52576;53.614;9.894;2023-02-28T05:02:03;19.40;;;7.25;;
21780;SDS011;52576;53.614;9.894;2023-02-28T05:04:08;18.25;;;7.07;;
21780;SDS011;52576;53.614;9.894;2023-02-28T05:06:12;17.50;;;6.70;;
21780;SDS011;52576;53.614;9.894;2023-02-28T05:08:16;21.13;;;7.80;;
21780;SDS011;52576;53.614;9.894;2023-02-28T05:10:20;28.33;;;10.52;;
21780;SDS011;52576;53.614;9.894;2023-02-28T05:12:23;23.92;;;10.07;;
21780;SDS011;52576;53.614;9.894;2023-02-28T05:14:27;23.33;;;9.73;;
21780;SDS011;52576;53.614;9.894;2023-02-28T05:16:30;26.67;;;10.05;;
21780;SDS011;52576;53.614;9.894;2023-02-28T05:18:35;29.02;;;10.68;;
21780;SDS011;52576;53.614;9.894;2023-02-28T05:20:39;24.08;;;9.85;;
21780;SDS011;52576;53.614;9.894;2023-02-28T05:22:43;28.88;;;11.20;;
21780;SDS011;52576;53.614;9.894;2023-02-28T05:24:46;25.10;;;10.20;;
21780;SDS011;52576;53.614;9.894;2023-02-28T05:26:50;32.33;;;10.45;;
21780;SDS011;52576;53.614;9.894;2023-02-28T05:28:54;29.95;;;10.70;;
21780;SDS011;52576;53.614;9.894;2023-02-28T05:30:58;28.67;;;10.88;;
21780;SDS011;52576;53.614;9.894;2023-02-28T05:33:02;29.30;;;10.60;;
21780;SDS011;52576;53.614;9.894;2023-02-28T05:35:08;31.20;;;10.40;;
21780;SDS011;52576;53.614;9.894;2023-02-28T05:37:13;31.17;;;11.77;;
21780;SDS011;52576;53.614;9.894;2023-02-28T05:39:17;30.67;;;10.98;;
21780;SDS011;52576;53.614;9.894;2023-02-28T05:41:20;34.80;;;12.02;;
21780;SDS011;52576;53.614;9.894;2023-02-28T05:43:24;36.40;;;13.07;;
21780;SDS011;52576;53.614;9.894;2023-02-28T05:45:28;31.33;;;12.75;;
21780;SDS011;52576;53.614;9.894;2023-02-28T05:47:31;44.95;;;12.80;;
21780;SDS011;52576;53.614;9.894;2023-02-28T05:49:35;31.52;;;13.50;;
21780;SDS011;52576;53.614;9.894;2023-02-28T05:51:40;37.33;;;14.15;;
21780;SDS011;52576;53.614;9.894;2023-02-28T05:53:43;35.28;;;13.50;;
21780;SDS011;52576;53.614;9.894;2023-02-28T05:55:47;35.72;;;13.45;;
21780;SDS011;52576;53.614;9.894;2023-02-28T05:57:50;34.70;;;13.38;;
21780;SDS011;52576;53.614;9.894;2023-02-28T05:59:54;32.58;;;12.45;;
21780;SDS011;52576;53.614;9.894;2023-02-28T06:01:57;40.10;;;13.70;;
21780;SDS011;52576;53.614;9.894;2023-02-28T06:04:01;30.35;;;13.05;;
21780;SDS011;52576;53.614;9.894;2023-02-28T06:06:06;34.20;;;13.05;;
21780;SDS011;52576;53.614;9.894;2023-02-28T06:08:11;35.13;;;13.00;;
21780;SDS011;52576;53.614;9.894;2023-02-28T06:10:14;36.05;;;12.63;;
21780;SDS011;52576;53.614;9.894;2023-02-28T06:12:18;38.60;;;13.10;;
21780;SDS011;52576;53.614;9.894;2023-02-28T06:14:21;34.60;;;13.13;;
21780;SDS011;52576;53.614;9.894;2023-02-28T06:16:25;37.90;;;12.63;;
21780;SDS011;52576;53.614;9.894;2023-02-28T06:18:29;33.92;;;12.90;;
21780;SDS011;52576;53.614;9.894;2023-02-28T06:20:33;34.72;;;12.60;;
21780;SDS011;52576;53.614;9.894;2023-02-28T06:22:38;32.38;;;13.13;;
21780;SDS011;52576;53.614;9.894;2023-02-28T06:24:43;39.95;;;13.15;;
21780;SDS011;52576;53.614;9.894;2023-02-28T06:26:46;41.25;;;13.27;;
21780;SDS011;52576;53.614;9.894;2023-02-28T06:28:50;32.22;;;13.07;;
21780;SDS011;52576;53.614;9.894;2023-02-28T06:30:53;36.45;;;12.77;;
21780;SDS011;52576;53.614;9.894;2023-02-28T06:32:57;37.80;;;12.63;;
21780;SDS011;52576;53.614;9.894;2023-02-28T06:35:00;27.85;;;11.43;;
21780;SDS011;52576;53.614;9.894;2023-02-28T06:37:04;35.47;;;12.43;;
21780;SDS011;52576;53.614;9.894;2023-02-28T06:39:08;37.72;;;12.45;;
21780;SDS011;52576;53.614;9.894;2023-02-28T06:41:13;32.30;;;11.30;;
21780;SDS011;52576;53.614;9.894;2023-02-28T06:43:17;33.53;;;11.45;;
21780;SDS011;52576;53.614;9.894;2023-02-28T06:45:20;30.13;;;11.65;;
21780;SDS011;52576;53.614;9.894;2023-02-28T06:47:24;33.63;;;12.18;;
21780;SDS011;52576;53.614;9.894;2023-02-28T06:49:27;28.45;;;11.75;;
21780;SDS011;52576;53.614;9.894;2023-02-28T06:51:30;30.60;;;11.77;;
21780;SDS011;52576;53.614;9.894;2023-02-28T06:53:34;40.38;;;11.63;;
21780;SDS011;52576;53.614;9.894;2023-02-28T06:55:38;26.25;;;10.13;;
21780;SDS011;52576;53.614;9.894;2023-02-28T06:57:43;20.30;;;9.55;;
21780;SDS011;52576;53.614;9.894;2023-02-28T06:59:46;37.45;;;10.90;;
21780;SDS011;52576;53.614;9.894;2023-02-28T07:01:50;27.38;;;10.50;;
21780;SDS011;52576;53.614;9.894;2023-02-28T07:03:54;24.33;;;8.73;;
21780;SDS011;52576;53.614;9.894;2023-02-28T07:05:57;25.15;;;9.48;;
21780;SDS011;52576;53.614;9.894;2023-02-28T07:08:01;29.83;;;8.80;;
21780;SDS011;52576;53.614;9.894;2023-02-28T07:10:05;26.20;;;9.40;;
21780;SDS011;52576;53.614;9.894;2023-02-28T07:12:09;24.23;;;10.15;;
21780;SDS011;52576;53.614;9.894;2023-02-28T07:14:14;25.75;;;8.70;;
21780;SDS011;52576;53.614;9.894;2023-02-28T07:16:17;22.45;;;8.73;;
21780;SDS011;52576;53.614;9.894;2023-02-28T07:18:21;19.42;;;9.25;;
21780;SDS011;52576;53.614;9.894;2023-02-28T07:20:25;16.42;;;7.40;;
21780;SDS011;52576;53.614;9.894;2023-02-28T07:22:28;19.35;;;6.90;;
21780;SDS011;52576;53.614;9.894;2023-02-28T07:24:32;17.00;;;7.95;;
21780;SDS011;52576;53.614;9.894;2023-02-28T07:26:36;20.25;;;7.75;;
21780;SDS011;52576;53.614;9.894;2023-02-28T07:28:40;16.60;;;6.00;;
21780;SDS011;52576;53.614;9.894;2023-02-28T07:30:45;12.85;;;6.13;;
21780;SDS011;52576;53.614;9.894;2023-02-28T07:32:49;12.18;;;5.15;;
21780;SDS011;52576;53.614;9.894;2023-02-28T07:34:53;13.23;;;4.53;;
21780;SDS011;52576;53.614;9.894;2023-02-28T07:36:56;11.38;;;4.88;;
21780;SDS011;52576;53.614;9.894;2023-02-28T07:39:00;9.13;;;4.25;;
21780;SDS011;52576;53.614;9.894;2023-02-28T07:41:04;12.60;;;5.25;;
21780;SDS011;52576;53.614;9.894;2023-02-28T07:43:08;10.80;;;4.80;;
21780;SDS011;52576;53.614;9.894;2023-02-28T07:45:11;10.07;;;3.97;;
21780;SDS011;52576;53.614;9.894;2023-02-28T07:47:16;11.57;;;4.07;;
21780;SDS011;52576;53.614;9.894;2023-02-28T07:49:19;11.70;;;3.53;;
21780;SDS011;52576;53.614;9.894;2023-02-28T07:51:23;8.80;;;3.35;;
21780;SDS011;52576;53.614;9.894;2023-02-28T07:53:26;8.27;;;2.95;;
21780;SDS011;52576;53.614;9.894;2023-02-28T07:55:30;9.23;;;3.05;;
21780;SDS011;52576;53.614;9.894;2023-02-28T07:57:34;6.90;;;3.28;;
21780;SDS011;52576;53.614;9.894;2023-02-28T07:59:37;9.07;;;2.92;;
21780;SDS011;52576;53.614;9.894;2023-02-28T08:01:41;5.97;;;2.80;;
21780;SDS011;52576;53.614;9.894;2023-02-28T08:03:47;5.20;;;2.83;;
21780;SDS011;52576;53.614;9.894;2023-02-28T08:05:51;5.25;;;2.78;;
21780;SDS011;52576;53.614;9.894;2023-02-28T08:07:55;6.57;;;2.33;;
21780;SDS011;52576;53.614;9.894;2023-02-28T08:09:59;5.47;;;2.35;;
21780;SDS011;52576;53.614;9.894;2023-02-28T08:12:03;4.40;;;2.35;;
21780;SDS011;52576;53.614;9.894;2023-02-28T08:14:06;6.15;;;2.53;;
21780;SDS011;52576;53.614;9.894;2023-02-28T08:16:10;5.60;;;2.47;;
21780;SDS011;52576;53.614;9.894;2023-02-28T08:18:16;6.75;;;2.78;;
21780;SDS011;52576;53.614;9.894;2023-02-28T08:20:21;4.65;;;2.30;;
21780;SDS011;52576;53.614;9.894;2023-02-28T08:22:24;6.35;;;2.30;;
21780;SDS011;52576;53.614;9.894;2023-02-28T08:24:28;5.80;;;2.10;;
21780;SDS011;52576;53.614;9.894;2023-02-28T08:26:32;6.60;;;2.17;;
21780;SDS011;52576;53.614;9.894;2023-02-28T08:28:35;5.40;;;2.10;;
21780;SDS011;52576;53.614;9.894;2023-02-28T08:30:39;7.35;;;2.30;;
21780;SDS011;52576;53.614;9.894;2023-02-28T08:32:42;3.88;;;1.77;;
21780;SDS011;52576;53.614;9.894;2023-02-28T08:34:46;6.28;;;1.90;;
21780;SDS011;52576;53.614;9.894;2023-02-28T08:36:51;7.70;;;1.77;;
21780;SDS011;52576;53.614;9.894;2023-02-28T08:38:54;3.42;;;1.60;;
21780;SDS011;52576;53.614;9.894;2023-02-28T08:41:00;3.92;;;1.85;;
21780;SDS011;52576;53.614;9.894;2023-02-28T08:43:04;5.43;;;1.90;;
21780;SDS011;52576;53.614;9.894;2023-02-28T08:45:09;3.33;;;1.85;;
21780;SDS011;52576;53.614;9.894;2023-02-28T08:47:13;4.03;;;1.77;;
21780;SDS011;52576;53.614;9.894;2023-02-28T08:49:17;4.55;;;1.95;;
21780;SDS011;52576;53.614;9.894;2023-02-28T08:51:21;6.32;;;2.00;;
21780;SDS011;52576;53.614;9.894;2023-02-28T08:53:30;3.75;;;1.55;;
21780;SDS011;52576;53.614;9.894;2023-02-28T08:55:33;6.47;;;1.48;;
21780;SDS011;52576;53.614;9.894;2023-02-28T08:57:37;3.88;;;1.88;;
21780;SDS011;52576;53.614;9.894;2023-02-28T08:59:40;4.85;;;1.90;;
21780;SDS011;52576;53.614;9.894;2023-02-28T09:01:44;6.65;;;1.92;;
21780;SDS011;52576;53.614;9.894;2023-02-28T09:03:48;5.70;;;1.85;;
21780;SDS011;52576;53.614;9.894;2023-02-28T09:05:56;5.82;;;1.88;;
21780;SDS011;52576;53.614;9.894;2023-02-28T09:08:01;6.32;;;1.67;;
21780;SDS011;52576;53.614;9.894;2023-02-28T09:10:07;5.20;;;1.60;;
21780;SDS011;52576;53.614;9.894;2023-02-28T09:12:11;4.70;;;1.67;;
21780;SDS011;52576;53.614;9.894;2023-02-28T09:14:14;5.95;;;1.77;;
21780;SDS011;52576;53.614;9.894;2023-02-28T09:16:19;4.47;;;1.80;;
21780;SDS011;52576;53.614;9.894;2023-02-28T09:18:22;8.10;;;1.52;;
21780;SDS011;52576;53.614;9.894;2023-02-28T09:20:26;3.85;;;1.33;;
21780;SDS011;52576;53.614;9.894;2023-02-28T09:22:29;5.55;;;1.50;;
21780;SDS011;52576;53.614;9.894;2023-02-28T09:24:32;4.32;;;1.50;;
21780;SDS011;52576;53.614;9.894;2023-02-28T09:26:37;3.53;;;1.45;;
21780;SDS011;52576;53.614;9.894;2023-02-28T09:28:48;4.32;;;1.50;;
21780;SDS011;52576;53.614;9.894;2023-02-28T09:30:52;2.85;;;1.52;;
21780;SDS011;52576;53.614;9.894;2023-02-28T09:32:58;4.93;;;1.70;;
21780;SDS011;52576;53.614;9.894;2023-02-28T09:35:01;4.10;;;1.40;;
21780;SDS011;52576;53.614;9.894;2023-02-28T09:37:05;4.45;;;1.50;;
21780;SDS011;52576;53.614;9.894;2023-02-28T09:39:08;4.43;;;1.30;;
21780;SDS011;52576;53.614;9.894;2023-02-28T09:41:13;2.42;;;1.20;;
21780;SDS011;52576;53.614;9.894;2023-02-28T09:43:20;3.35;;;1.40;;
21780;SDS011;52576;53.614;9.894;2023-02-28T09:45:27;2.83;;;1.10;;
21780;SDS011;52576;53.614;9.894;2023-02-28T09:47:34;2.38;;;1.20;;
21780;SDS011;52576;53.614;9.894;2023-02-28T09:49:43;3.30;;;1.58;;
21780;SDS011;52576;53.614;9.894;2023-02-28T09:51:50;3.85;;;1.52;;
21780;SDS011;52576;53.614;9.894;2023-02-28T09:53:57;3.38;;;1.48;;
21780;SDS011;52576;53.614;9.894;2023-02-28T09:56:04;7.47;;;2.20;;
21780;SDS011;52576;53.614;9.894;2023-02-28T09:58:11;3.65;;;1.50;;
21780;SDS011;52576;53.614;9.894;2023-02-28T10:00:24;4.10;;;1.42;;
21780;SDS011;52576;53.614;9.894;2023-02-28T10:05:04;2.58;;;1.30;;
21780;SDS011;52576;53.614;9.894;2023-02-28T10:07:17;4.95;;;1.70;;
21780;SDS011;52576;53.614;9.894;2023-02-28T10:09:27;5.85;;;1.58;;
21780;SDS011;52576;53.614;9.894;2023-02-28T10:11:35;5.13;;;1.50;;
21780;SDS011;52576;53.614;9.894;2023-02-28T10:13:45;5.40;;;1.77;;
21780;SDS011;52576;53.614;9.894;2023-02-28T10:15:56;4.60;;;1.65;;
21780;SDS011;52576;53.614;9.894;2023-02-28T10:18:04;4.30;;;1.60;;
21780;SDS011;52576;53.614;9.894;2023-02-28T10:20:15;3.83;;;1.40;;
21780;SDS011;52576;53.614;9.894;2023-02-28T10:22:24;2.90;;;1.45;;
21780;SDS011;52576;53.614;9.894;2023-02-28T10:24:33;3.05;;;1.75;;
21780;SDS011;52576;53.614;9.894;2023-02-28T10:26:41;3.67;;;1.40;;
21780;SDS011;52576;53.614;9.894;2023-02-28T10:28:48;4.47;;;1.27;;
21780;SDS011;52576;53.614;9.894;2023-02-28T10:30:52;5.85;;;1.50;;
21780;SDS011;52576;53.614;9.894;2023-02-28T10:32:58;3.45;;;1.50;;
21780;SDS011;52576;53.614;9.894;2023-02-28T10:35:07;2.38;;;1.10;;
21780;SDS011;52576;53.614;9.894;2023-02-28T10:37:17;4.30;;;1.40;;
21780;SDS011;52576;53.614;9.894;2023-02-28T10:39:36;3.92;;;1.60;;
21780;SDS011;52576;53.614;9.894;2023-02-28T10:41:42;3.03;;;1.33;;
21780;SDS011;52576;53.614;9.894;2023-02-28T10:43:46;3.05;;;1.10;;
21780;SDS011;52576;53.614;9.894;2023-02-28T10:45:56;3.38;;;1.48;;
21780;SDS011;52576;53.614;9.894;2023-02-28T10:48:04;3.60;;;1.30;;
21780;SDS011;52576;53.614;9.894;2023-02-28T10:50:33;3.47;;;1.27;;
21780;SDS011;52576;53.614;9.894;2023-02-28T10:52:40;2.95;;;1.20;;
21780;SDS011;52576;53.614;9.894;2023-02-28T10:54:44;3.13;;;1.33;;
21780;SDS011;52576;53.614;9.894;2023-02-28T10:59:25;3.08;;;1.50;;
21780;SDS011;52576;53.614;9.894;2023-02-28T11:01:35;4.57;;;1.30;;
21780;SDS011;52576;53.614;9.894;2023-02-28T11:03:42;5.22;;;1.27;;
21780;SDS011;52576;53.614;9.894;2023-02-28T11:05:45;2.90;;;1.58;;
21780;SDS011;52576;53.614;9.894;2023-02-28T11:07:51;4.47;;;1.40;;
21780;SDS011;52576;53.614;9.894;2023-02-28T11:09:56;3.05;;;1.30;;
21780;SDS011;52576;53.614;9.894;2023-02-28T11:12:00;5.38;;;1.83;;
21780;SDS011;52576;53.614;9.894;2023-02-28T11:14:14;4.53;;;1.30;;
21780;SDS011;52576;53.614;9.894;2023-02-28T11:16:23;2.25;;;1.35;;
21780;SDS011;52576;53.614;9.894;2023-02-28T11:18:37;5.40;;;1.40;;
21780;SDS011;52576;53.614;9.894;2023-02-28T11:20:46;2.85;;;1.35;;
21780;SDS011;52576;53.614;9.894;2023-02-28T11:22:52;3.28;;;1.70;;
21780;SDS011;52576;53.614;9.894;2023-02-28T11:24:59;3.28;;;1.30;;
21780;SDS011;52576;53.614;9.894;2023-02-28T11:27:04;3.00;;;1.30;;
21780;SDS011;52576;53.614;9.894;2023-02-28T11:29:19;2.80;;;1.25;;
21780;SDS011;52576;53.614;9.894;2023-02-28T11:31:24;5.20;;;1.63;;
21780;SDS011;52576;53.614;9.894;2023-02-28T11:33:29;5.93;;;1.90;;
21780;SDS011;52576;53.614;9.894;2023-02-28T11:35:34;4.45;;;1.45;;
21780;SDS011;52576;53.614;9.894;2023-02-28T11:37:42;3.25;;;1.42;;
21780;SDS011;52576;53.614;9.894;2023-02-28T11:39:47;3.47;;;1.40;;
21780;SDS011;52576;53.614;9.894;2023-02-28T11:44:38;3.33;;;1.38;;
21780;SDS011;52576;53.614;9.894;2023-02-28T11:46:49;4.65;;;1.50;;
21780;SDS011;52576;53.614;9.894;2023-02-28T11:48:57;5.18;;;1.42;;
21780;SDS011;52576;53.614;9.894;2023-02-28T11:51:08;3.53;;;1.48;;
21780;SDS011;52576;53.614;9.894;2023-02-28T11:53:22;3.58;;;1.52;;
21780;SDS011;52576;53.614;9.894;2023-02-28T11:55:35;5.35;;;1.67;;
21780;SDS011;52576;53.614;9.894;2023-02-28T11:57:46;3.97;;;1.60;;
21780;SDS011;52576;53.614;9.894;2023-02-28T12:00:01;4.20;;;1.70;;
21780;SDS011;52576;53.614;9.894;2023-02-28T12:02:20;3.08;;;1.33;;
21780;SDS011;52576;53.614;9.894;2023-02-28T12:04:32;2.83;;;1.60;;
21780;SDS011;52576;53.614;9.894;2023-02-28T12:06:45;3.78;;;1.48;;
21780;SDS011;52576;53.614;9.894;2023-02-28T12:11:34;4.47;;;1.40;;
21780;SDS011;52576;53.614;9.894;2023-02-28T12:13:48;3.33;;;1.50;;
21780;SDS011;52576;53.614;9.894;2023-02-28T12:16:13;6.47;;;1.40;;
21780;SDS011;52576;53.614;9.894;2023-02-28T12:18:42;5.38;;;1.65;;
21780;SDS011;52576;53.614;9.894;2023-02-28T12:20:58;7.45;;;1.55;;
21780;SDS011;52576;53.614;9.894;2023-02-28T12:25:34;3.78;;;1.60;;
21780;SDS011;52576;53.614;9.894;2023-02-28T12:27:47;4.30;;;1.60;;
21780;SDS011;52576;53.614;9.894;2023-02-28T12:29:52;2.95;;;1.40;;
21780;SDS011;52576;53.614;9.894;2023-02-28T12:31:59;4.93;;;1.70;;
21780;SDS011;52576;53.614;9.894;2023-02-28T12:34:10;3.63;;;1.70;;
21780;SDS011;52576;53.614;9.894;2023-02-28T12:36:19;3.80;;;1.88;;
21780;SDS011;52576;53.614;9.894;2023-02-28T12:38:26;4.88;;;1.50;;
21780;SDS011;52576;53.614;9.894;2023-02-28T12:40:39;4.15;;;1.35;;
21780;SDS011;52576;53.614;9.894;2023-02-28T12:42:48;1.73;;;1.30;;
21780;SDS011;52576;53.614;9.894;2023-02-28T12:44:56;3.08;;;1.45;;
21780;SDS011;52576;53.614;9.894;2023-02-28T12:47:04;4.30;;;1.58;;
21780;SDS011;52576;53.614;9.894;2023-02-28T12:49:12;3.60;;;1.40;;
21780;SDS011;52576;53.614;9.894;2023-02-28T12:51:20;5.13;;;1.40;;
21780;SDS011;52576;53.614;9.894;2023-02-28T12:53:25;5.07;;;1.60;;